Time,TemperatureF,DewpointF,PressureIn,WindDirection,WindDirectionDegrees,WindSpeedMPH,WindSpeedGustMPH,Humidity,HourlyPrecipIn,Conditions,Clouds,dailyrainin,SoftwareType,DateUTC
2013-10-28 00:01:00,54.3,48.3,30.12,North,0,0.0,0.0,80,0.00,CLR,FEW,0.00,WeatherDisplay:10.37,2013-10-28 04:01:00,
2013-10-28 00:02:00,54.3,48.3,30.12,North,0,0.0,0.0,80,0.00,CLR,FEW,0.00,WeatherDisplay:10.37,2013-10-28 04:02:00,
2013-10-28 00:03:00,54.3,48.3,30.12,North,0,0.0,0.0,80,0.00,CLR,FEW,0.00,WeatherDisplay:10.37,2013-10-28 04:03:00,
2013-10-28 00:04:00,54.3,48.6,30.12,North,0,0.0,0.0,81,0.00,CLR,FEW,0.00,WeatherDisplay:10.37,2013-10-28 04:04:00,
2013-10-28 00:06:00,54.3,48.6,30.12,North,0,0.0,0.0,81,0.00,CLR,FEW,0.00,WeatherDisplay:10.37,2013-10-28 04:06:00,
2013-10-28 00:11:00,54.3,48.6,30.12,North,0,0.0,0.0,81,0.00,CLR,FEW,0.00,WeatherDisplay:10.37,2013-10-28 04:11:00,
2013-10-28 00:16:00,54.3,48.6,30.12,North,0,0.0,0.0,81,0.00,CLR,FEW,0.00,WeatherDisplay:10.37,2013-10-28 04:16:00,
2013-10-28 00:21:00,54.3,48.6,30.12,North,0,0.0,0.0,81,0.00,CLR,FEW,0.00,WeatherDisplay:10.37,2013-10-28 04:21:00,
2013-10-28 00:26:00,54.3,48.9,30.12,North,0,0.0,0.0,82,0.00,CLR,FEW,0.00,WeatherDisplay:10.37,2013-10-28 04:26:00,
2013-10-28 00:31:00,54.3,48.9,30.12,North,0,0.0,0.0,82,0.00,CLR,FEW,0.00,WeatherDisplay:10.37,2013-10-28 04:31:00,
2013-10-28 00:36:00,54.1,49.1,30.12,North,0,0.0,0.0,83,0.00,CLR,FEW,0.00,WeatherDisplay:10.37,2013-10-28 04:36:00,
2013-10-28 00:41:00,54.1,49.1,30.12,North,0,0.0,0.0,83,0.00,CLR,FEW,0.00,WeatherDisplay:10.37,2013-10-28 04:41:00,
2013-10-28 00:46:00,54.1,49.1,30.12,North,0,0.0,0.0,83,0.00,CLR,FEW,0.00,WeatherDisplay:10.37,2013-10-28 04:46:00,
2013-10-28 00:51:00,54.0,48.9,30.12,North,0,0.0,0.0,83,0.00,CLR,FEW,0.00,WeatherDisplay:10.37,2013-10-28 04:51:00,
2013-10-28 00:56:00,54.0,48.9,30.12,North,0,0.0,0.0,83,0.00,CLR,FEW,0.00,WeatherDisplay:10.37,2013-10-28 04:56:00,
2013-10-28 01:01:00,54.0,48.9,30.12,North,0,0.0,0.0,83,0.00,CLR,FEW,0.00,WeatherDisplay:10.37,2013-10-28 05:01:00,
2013-10-28 01:06:00,54.0,48.9,30.12,North,0,0.0,0.0,83,0.00,CLR,FEW,0.00,WeatherDisplay:10.37,2013-10-28 05:06:00,
2013-10-28 01:11:00,54.0,48.9,30.12,North,0,0.0,0.0,83,0.00,CLR,FEW,0.00,WeatherDisplay:10.37,2013-10-28 05:11:00,
2013-10-28 01:16:00,54.0,48.9,30.12,North,0,0.0,0.0,83,0.00,CLR,FEW,0.00,WeatherDisplay:10.37,2013-10-28 05:16:00,
2013-10-28 01:21:00,53.8,48.7,30.12,North,0,0.0,0.0,83,0.00,CLR,FEW,0.00,WeatherDisplay:10.37,2013-10-28 05:21:00,
2013-10-28 01:26:00,53.8,48.7,30.12,North,0,0.0,0.0,83,0.00,CLR,FEW,0.00,WeatherDisplay:10.37,2013-10-28 05:26:00,
2013-10-28 01:31:00,53.6,48.6,30.12,North,0,0.0,0.0,83,0.00,CLR,FEW,0.00,WeatherDisplay:10.37,2013-10-28 05:31:00,
2013-10-28 01:36:00,53.4,48.7,30.12,North,0,0.0,0.0,84,0.00,CLR,FEW,0.00,WeatherDisplay:10.37,2013-10-28 05:36:00,
2013-10-28 01:41:00,53.4,48.7,30.12,North,0,0.0,0.0,84,0.00,CLR,FEW,0.00,WeatherDisplay:10.37,2013-10-28 05:41:00,
2013-10-28 01:46:00,53.4,48.7,30.12,North,0,0.0,0.0,84,0.00,CLR,FEW,0.00,WeatherDisplay:10.37,2013-10-28 05:46:00,
2013-10-28 01:51:00,53.4,48.7,30.12,North,0,0.0,0.0,84,0.00,CLR,FEW,0.00,WeatherDisplay:10.37,2013-10-28 05:51:00,
2013-10-28 01:56:00,53.2,48.5,30.12,North,0,0.0,0.0,84,0.00,CLR,FEW,0.00,WeatherDisplay:10.37,2013-10-28 05:56:00,
2013-10-28 02:01:00,53.2,48.5,30.12,North,0,0.0,0.0,84,0.00,CLR,FEW,0.00,WeatherDisplay:10.37,2013-10-28 06:01:00,
2013-10-28 02:06:00,53.2,48.5,30.12,North,0,0.0,0.0,84,0.00,CLR,FEW,0.00,WeatherDisplay:10.37,2013-10-28 06:06:00,
2013-10-28 02:12:00,53.4,49.0,30.12,North,0,0.0,0.0,85,0.00,CLR,FEW,0.00,WeatherDisplay:10.37,2013-10-28 06:12:00,
2013-10-28 02:17:00,53.4,49.0,30.12,North,0,0.0,0.0,85,0.00,CLR,FEW,0.00,WeatherDisplay:10.37,2013-10-28 06:17:00,
2013-10-28 02:22:00,53.4,49.0,30.12,North,0,0.0,0.0,85,0.00,CLR,FEW,0.00,WeatherDisplay:10.37,2013-10-28 06:22:00,
2013-10-28 02:27:00,53.4,49.0,30.12,North,0,0.0,0.0,85,0.00,CLR,FEW,0.00,WeatherDisplay:10.37,2013-10-28 06:27:00,
2013-10-28 02:32:00,53.4,49.0,30.12,North,0,0.0,0.0,85,0.00,CLR,FEW,0.00,WeatherDisplay:10.37,2013-10-28 06:32:00,
2013-10-28 02:37:00,53.4,49.0,30.12,North,0,0.0,0.0,85,0.00,CLR,FEW,0.00,WeatherDisplay:10.37,2013-10-28 06:37:00,
2013-10-28 02:42:00,53.6,49.2,30.12,North,0,0.0,0.0,85,0.00,CLR,FEW,0.00,WeatherDisplay:10.37,2013-10-28 06:42:00,
2013-10-28 02:47:00,53.6,49.5,30.12,North,0,0.0,0.0,86,0.00,CLR,FEW,0.00,WeatherDisplay:10.37,2013-10-28 06:47:00,
2013-10-28 02:52:00,53.4,49.3,30.12,North,0,0.0,0.0,86,0.00,CLR,FEW,0.00,WeatherDisplay:10.37,2013-10-28 06:52:00,
2013-10-28 02:57:00,53.4,49.3,30.12,North,0,0.0,0.0,86,0.00,CLR,FEW,0.00,WeatherDisplay:10.37,2013-10-28 06:57:00,
2013-10-28 03:02:00,53.6,49.5,30.12,North,0,0.0,0.0,86,0.00,CLR,FEW,0.00,WeatherDisplay:10.37,2013-10-28 07:02:00,
2013-10-28 03:07:00,53.6,49.5,30.12,North,0,0.0,0.0,86,0.00,CLR,FEW,0.00,WeatherDisplay:10.37,2013-10-28 07:07:00,
2013-10-28 03:12:00,53.6,49.5,30.12,North,0,0.0,0.0,86,0.00,CLR,FEW,0.00,WeatherDisplay:10.37,2013-10-28 07:12:00,
2013-10-28 03:17:00,53.6,49.5,30.12,North,0,0.0,0.0,86,0.00,CLR,FEW,0.00,WeatherDisplay:10.37,2013-10-28 07:17:00,
2013-10-28 03:22:00,53.6,49.8,30.12,North,0,0.0,0.0,87,0.00,CLR,FEW,0.00,WeatherDisplay:10.37,2013-10-28 07:22:00,
2013-10-28 03:27:00,53.6,49.8,30.12,North,0,0.0,0.0,87,0.00,CLR,FEW,0.00,WeatherDisplay:10.37,2013-10-28 07:27:00,
2013-10-28 03:32:00,53.6,49.8,30.12,North,0,0.0,0.0,87,0.00,CLR,FEW,0.00,WeatherDisplay:10.37,2013-10-28 07:32:00,
2013-10-28 03:38:00,53.6,49.8,30.12,North,0,0.0,0.0,87,0.00,CLR,FEW,0.00,WeatherDisplay:10.37,2013-10-28 07:38:00,
2013-10-28 03:43:00,53.6,49.8,30.12,North,0,0.0,0.0,87,0.00,CLR,FEW,0.00,WeatherDisplay:10.37,2013-10-28 07:43:00,
2013-10-28 03:48:00,53.8,50.0,30.12,North,0,0.0,0.0,87,0.00,CLR,FEW,0.00,WeatherDisplay:10.37,2013-10-28 07:48:00,
2013-10-28 03:53:00,53.8,50.0,30.12,North,0,0.0,0.0,87,0.00,CLR,FEW,0.00,WeatherDisplay:10.37,2013-10-28 07:53:00,
2013-10-28 03:58:00,53.8,50.0,30.12,North,0,0.0,0.0,87,0.00,CLR,FEW,0.00,WeatherDisplay:10.37,2013-10-28 07:58:00,
2013-10-28 04:03:00,54.0,50.2,30.12,North,0,0.0,0.0,87,0.00,CLR,FEW,0.00,WeatherDisplay:10.37,2013-10-28 08:03:00,
2013-10-28 04:08:00,54.0,50.2,30.12,North,0,0.0,0.0,87,0.00,CLR,FEW,0.00,WeatherDisplay:10.37,2013-10-28 08:08:00,
2013-10-28 04:13:00,54.0,50.5,30.12,North,0,0.0,0.0,88,0.00,CLR,FEW,0.00,WeatherDisplay:10.37,2013-10-28 08:13:00,
2013-10-28 04:18:00,54.0,50.5,30.12,North,0,0.0,0.0,88,0.00,CLR,FEW,0.00,WeatherDisplay:10.37,2013-10-28 08:18:00,
2013-10-28 04:23:00,54.0,50.5,30.12,North,0,0.0,0.0,88,0.00,CLR,FEW,0.00,WeatherDisplay:10.37,2013-10-28 08:23:00,
2013-10-28 04:28:00,54.0,50.5,30.12,North,0,0.0,0.0,88,0.00,CLR,FEW,0.00,WeatherDisplay:10.37,2013-10-28 08:28:00,
2013-10-28 04:33:00,54.0,50.5,30.12,North,0,0.0,0.0,88,0.00,CLR,FEW,0.00,WeatherDisplay:10.37,2013-10-28 08:33:00,
2013-10-28 04:38:00,54.0,50.5,30.12,North,0,0.0,0.0,88,0.00,CLR,FEW,0.00,WeatherDisplay:10.37,2013-10-28 08:38:00,
2013-10-28 04:43:00,54.0,50.5,30.12,North,0,0.0,0.0,88,0.00,CLR,FEW,0.00,WeatherDisplay:10.37,2013-10-28 08:43:00,
2013-10-28 04:48:00,54.0,50.5,30.12,North,0,0.0,0.0,88,0.00,CLR,FEW,0.00,WeatherDisplay:10.37,2013-10-28 08:48:00,
2013-10-28 04:53:00,54.0,50.5,30.12,North,0,0.0,0.0,88,0.00,CLR,FEW,0.00,WeatherDisplay:10.37,2013-10-28 08:53:00,
2013-10-28 04:58:00,54.1,50.7,30.12,North,0,0.0,0.0,88,0.00,CLR,FEW,0.00,WeatherDisplay:10.37,2013-10-28 08:58:00,
2013-10-28 05:03:00,54.1,50.7,30.12,North,0,0.0,0.0,88,0.00,CLR,FEW,0.00,WeatherDisplay:10.37,2013-10-28 09:03:00,
2013-10-28 05:08:00,54.1,50.7,30.12,North,0,0.0,0.0,88,0.00,CLR,FEW,0.00,WeatherDisplay:10.37,2013-10-28 09:08:00,
2013-10-28 05:13:00,54.1,50.7,30.12,North,0,0.0,0.0,88,0.00,CLR,FEW,0.00,WeatherDisplay:10.37,2013-10-28 09:13:00,
2013-10-28 05:18:00,54.1,50.7,30.12,North,0,0.0,0.0,88,0.00,CLR,FEW,0.00,WeatherDisplay:10.37,2013-10-28 09:18:00,
2013-10-28 05:23:00,54.1,50.7,30.12,North,0,0.0,0.0,88,0.00,CLR,FEW,0.00,WeatherDisplay:10.37,2013-10-28 09:23:00,
2013-10-28 05:28:00,54.3,51.1,30.15,North,0,0.0,0.0,89,0.00,CLR,FEW,0.00,WeatherDisplay:10.37,2013-10-28 09:28:00,
2013-10-28 05:33:00,54.5,51.3,30.15,North,0,0.0,0.0,89,0.00,CLR,FEW,0.00,WeatherDisplay:10.37,2013-10-28 09:33:00,
2013-10-28 05:38:00,54.5,51.3,30.15,North,0,0.0,0.0,89,0.00,CLR,FEW,0.00,WeatherDisplay:10.37,2013-10-28 09:38:00,
2013-10-28 05:43:00,54.5,51.3,30.15,North,0,0.0,0.0,89,0.00,CLR,FEW,0.00,WeatherDisplay:10.37,2013-10-28 09:43:00,
2013-10-28 05:48:00,54.5,51.0,30.15,North,0,0.0,0.0,88,0.00,CLR,FEW,0.00,WeatherDisplay:10.37,2013-10-28 09:48:00,
2013-10-28 05:53:00,54.3,50.8,30.15,North,0,0.0,0.0,88,0.00,CLR,FEW,0.00,WeatherDisplay:10.37,2013-10-28 09:53:00,
2013-10-28 05:58:00,54.1,50.7,30.15,North,0,0.0,0.0,88,0.00,CLR,FEW,0.00,WeatherDisplay:10.37,2013-10-28 09:58:00,
2013-10-28 06:03:00,54.0,50.5,30.15,North,0,0.0,0.0,88,0.00,CLR,FEW,0.00,WeatherDisplay:10.37,2013-10-28 10:03:00,
2013-10-28 06:08:00,54.0,50.5,30.15,North,0,0.0,0.0,88,0.00,CLR,FEW,0.00,WeatherDisplay:10.37,2013-10-28 10:08:00,
2013-10-28 06:13:00,53.8,50.3,30.15,North,0,0.0,0.0,88,0.00,CLR,FEW,0.00,WeatherDisplay:10.37,2013-10-28 10:13:00,
2013-10-28 06:18:00,53.8,50.3,30.15,North,0,0.0,0.0,88,0.00,CLR,FEW,0.00,WeatherDisplay:10.37,2013-10-28 10:18:00,
2013-10-28 06:23:00,53.8,50.3,30.15,North,0,0.0,0.0,88,0.00,CLR,FEW,0.00,WeatherDisplay:10.37,2013-10-28 10:23:00,
2013-10-28 06:28:00,53.6,50.1,30.15,North,0,0.0,0.0,88,0.00,CLR,FEW,0.00,WeatherDisplay:10.37,2013-10-28 10:28:00,
2013-10-28 06:33:00,53.6,50.1,30.15,North,0,0.0,0.0,88,0.00,CLR,FEW,0.00,WeatherDisplay:10.37,2013-10-28 10:33:00,
2013-10-28 06:38:00,53.6,50.1,30.15,North,0,0.0,0.0,88,0.00,CLR,FEW,0.00,WeatherDisplay:10.37,2013-10-28 10:38:00,
2013-10-28 06:43:00,53.6,50.1,30.15,North,0,0.0,0.0,88,0.00,CLR,FEW,0.00,WeatherDisplay:10.37,2013-10-28 10:43:00,
2013-10-28 06:48:00,53.8,50.3,30.15,North,0,0.0,0.0,88,0.00,CLR,FEW,0.00,WeatherDisplay:10.37,2013-10-28 10:48:00,
2013-10-28 06:53:00,53.8,50.6,30.15,North,0,0.0,0.0,89,0.00,CLR,FEW,0.00,WeatherDisplay:10.37,2013-10-28 10:53:00,
2013-10-28 06:58:00,54.0,50.8,30.15,North,0,0.0,0.0,89,0.00,CLR,FEW,0.00,WeatherDisplay:10.37,2013-10-28 10:58:00,
2013-10-28 07:03:00,54.1,51.0,30.15,North,0,0.0,0.0,89,0.00,CLR,FEW,0.00,WeatherDisplay:10.37,2013-10-28 11:03:00,
2013-10-28 07:08:00,54.1,51.0,30.15,North,0,0.0,0.0,89,0.00,CLR,FEW,0.00,WeatherDisplay:10.37,2013-10-28 11:08:00,
2013-10-28 07:13:00,54.1,51.0,30.15,North,0,0.0,0.0,89,0.00,CLR,FEW,0.00,WeatherDisplay:10.37,2013-10-28 11:13:00,
2013-10-28 07:18:00,54.1,51.0,30.15,North,0,0.0,0.0,89,0.00,CLR,FEW,0.00,WeatherDisplay:10.37,2013-10-28 11:18:00,
2013-10-28 07:23:00,54.1,51.0,30.15,North,0,0.0,0.0,89,0.00,CLR,FEW,0.00,WeatherDisplay:10.37,2013-10-28 11:23:00,
2013-10-28 07:28:00,54.1,51.0,30.18,North,0,0.0,0.0,89,0.00,CLR,FEW,0.00,WeatherDisplay:10.37,2013-10-28 11:28:00,
2013-10-28 07:33:00,54.3,51.4,30.18,North,0,0.0,0.0,90,0.00,CLR,FEW,0.00,WeatherDisplay:10.37,2013-10-28 11:33:00,
2013-10-28 07:38:00,54.5,51.6,30.18,North,0,0.0,0.0,90,0.00,CLR,FEW,0.00,WeatherDisplay:10.37,2013-10-28 11:38:00,
2013-10-28 07:43:00,54.5,51.6,30.18,North,0,0.0,0.0,90,0.00,CLR,FEW,0.00,WeatherDisplay:10.37,2013-10-28 11:43:00,
2013-10-28 07:48:00,54.5,51.6,30.18,North,0,0.0,0.0,90,0.00,CLR,FEW,0.00,WeatherDisplay:10.37,2013-10-28 11:48:00,
2013-10-28 07:53:00,54.5,51.6,30.18,North,0,0.0,0.0,90,0.00,CLR,FEW,0.00,WeatherDisplay:10.37,2013-10-28 11:53:00,
2013-10-28 07:58:00,54.5,51.6,30.18,North,0,0.0,0.0,90,0.00,CLR,FEW,0.00,WeatherDisplay:10.37,2013-10-28 11:58:00,
2013-10-28 08:03:00,54.7,51.8,30.18,North,0,0.0,0.0,90,0.00,CLR,FEW,0.00,WeatherDisplay:10.37,2013-10-28 12:03:00,
2013-10-28 08:08:00,54.9,52.0,30.18,North,0,0.0,0.0,90,0.00,CLR,FEW,0.00,WeatherDisplay:10.37,2013-10-28 12:08:00,
2013-10-28 08:13:00,55.2,52.6,30.18,North,0,0.0,0.0,91,0.00,CLR,FEW,0.00,WeatherDisplay:10.37,2013-10-28 12:13:00,
2013-10-28 08:18:00,55.8,53.2,30.18,North,0,0.0,0.0,91,0.00,CLR,FEW,0.00,WeatherDisplay:10.37,2013-10-28 12:18:00,
2013-10-28 08:23:00,56.3,53.7,30.18,North,0,0.0,0.0,91,0.00,CLR,FEW,0.00,WeatherDisplay:10.37,2013-10-28 12:23:00,
2013-10-28 08:28:00,57.2,54.6,30.18,North,0,0.0,0.0,91,0.00,CLR,FEW,0.00,WeatherDisplay:10.37,2013-10-28 12:28:00,
2013-10-28 08:33:00,58.1,55.8,30.18,North,0,0.0,0.0,92,0.00,CLR,FEW,0.00,WeatherDisplay:10.37,2013-10-28 12:33:00,
2013-10-28 08:38:00,58.8,56.8,30.18,North,0,0.0,0.0,93,0.00,CLR,FEW,0.00,WeatherDisplay:10.37,2013-10-28 12:38:00,
2013-10-28 08:43:00,59.9,57.6,30.21,North,0,0.0,0.0,92,0.00,CLR,FEW,0.00,WeatherDisplay:10.37,2013-10-28 12:43:00,
2013-10-28 08:48:00,60.8,58.2,30.21,North,0,0.0,0.0,91,0.00,CLR,FEW,0.00,WeatherDisplay:10.37,2013-10-28 12:48:00,
2013-10-28 08:53:00,61.7,58.4,30.21,North,0,0.0,0.0,89,0.00,CLR,FEW,0.00,WeatherDisplay:10.37,2013-10-28 12:53:00,
2013-10-28 08:58:00,62.2,57.0,30.21,North,0,0.0,0.0,83,0.00,CLR,FEW,0.00,WeatherDisplay:10.37,2013-10-28 12:58:00,
2013-10-28 09:03:00,62.6,53.8,30.21,North,0,0.0,0.0,73,0.00,CLR,FEW,0.00,WeatherDisplay:10.37,2013-10-28 13:03:00,
2013-10-28 09:08:00,63.1,49.9,30.21,North,0,0.0,0.0,62,0.00,CLR,FEW,0.00,WeatherDisplay:10.37,2013-10-28 13:08:00,
2013-10-28 09:13:00,63.9,50.1,30.21,North,0,0.0,0.0,61,0.00,CLR,FEW,0.00,WeatherDisplay:10.37,2013-10-28 13:13:00,
2013-10-28 09:18:00,64.4,50.7,30.21,North,0,0.0,0.0,61,0.00,CLR,FEW,0.00,WeatherDisplay:10.37,2013-10-28 13:18:00,
2013-10-28 09:23:00,64.6,49.9,30.21,North,0,0.0,0.0,59,0.00,CLR,FEW,0.00,WeatherDisplay:10.37,2013-10-28 13:23:00,
2013-10-28 09:28:00,64.8,49.6,30.21,North,0,0.0,0.0,58,0.00,CLR,FEW,0.00,WeatherDisplay:10.37,2013-10-28 13:28:00,
2013-10-28 09:33:00,64.8,48.7,30.21,North,0,0.0,0.0,56,0.00,CLR,FEW,0.00,WeatherDisplay:10.37,2013-10-28 13:33:00,
2013-10-28 09:38:00,64.8,48.2,30.21,North,0,0.0,0.0,55,0.00,CLR,FEW,0.00,WeatherDisplay:10.37,2013-10-28 13:38:00,
2013-10-28 09:43:00,64.8,47.7,30.21,North,0,0.0,0.0,54,0.00,CLR,FEW,0.00,WeatherDisplay:10.37,2013-10-28 13:43:00,
2013-10-28 09:48:00,64.8,46.7,30.21,North,0,0.0,0.0,52,0.00,CLR,FEW,0.00,WeatherDisplay:10.37,2013-10-28 13:48:00,
2013-10-28 09:53:00,64.2,44.6,30.21,North,0,0.0,0.0,49,0.00,CLR,FEW,0.00,WeatherDisplay:10.37,2013-10-28 13:53:00,
2013-10-28 09:58:00,63.9,45.4,30.21,North,0,0.0,0.0,51,0.00,CLR,FEW,0.00,WeatherDisplay:10.37,2013-10-28 13:58:00,
2013-10-28 10:03:00,63.5,46.1,30.21,North,0,0.0,0.0,53,0.00,CLR,FEW,0.00,WeatherDisplay:10.37,2013-10-28 14:03:00,
2013-10-28 10:08:00,63.1,45.2,30.21,North,0,0.0,0.0,52,0.00,CLR,FEW,0.00,WeatherDisplay:10.37,2013-10-28 14:08:00,
2013-10-28 10:13:00,63.1,46.2,30.21,North,0,0.0,0.0,54,0.00,CLR,FEW,0.00,WeatherDisplay:10.37,2013-10-28 14:13:00,
2013-10-28 10:18:00,63.0,46.0,30.21,North,0,0.0,0.0,54,0.00,CLR,FEW,0.00,WeatherDisplay:10.37,2013-10-28 14:18:00,
2013-10-28 10:23:00,63.0,46.5,30.21,North,0,0.0,0.0,55,0.00,CLR,FEW,0.00,WeatherDisplay:10.37,2013-10-28 14:23:00,
2013-10-28 10:28:00,63.0,46.5,30.21,North,0,0.0,0.0,55,0.00,CLR,FEW,0.00,WeatherDisplay:10.37,2013-10-28 14:28:00,
2013-10-28 10:33:00,63.0,47.0,30.21,North,0,0.0,0.0,56,0.00,CLR,FEW,0.00,WeatherDisplay:10.37,2013-10-28 14:33:00,
2013-10-28 10:38:00,63.1,47.2,30.21,North,0,0.0,0.0,56,0.00,CLR,FEW,0.00,WeatherDisplay:10.37,2013-10-28 14:38:00,
2013-10-28 10:43:00,63.3,47.3,30.24,North,0,0.0,0.0,56,0.00,CLR,FEW,0.00,WeatherDisplay:10.37,2013-10-28 14:43:00,
2013-10-28 10:48:00,63.5,47.0,30.24,North,0,0.0,0.0,55,0.00,CLR,FEW,0.00,WeatherDisplay:10.37,2013-10-28 14:48:00,
2013-10-28 10:53:00,63.9,47.4,30.24,North,0,0.0,0.0,55,0.00,CLR,FEW,0.00,WeatherDisplay:10.37,2013-10-28 14:53:00,
2013-10-28 10:59:00,64.2,48.2,30.24,North,0,0.0,0.0,56,0.00,CLR,FEW,0.00,WeatherDisplay:10.37,2013-10-28 14:59:00,
2013-10-28 11:04:00,64.4,47.9,30.24,North,0,0.0,0.0,55,0.00,CLR,FEW,0.00,WeatherDisplay:10.37,2013-10-28 15:04:00,
2013-10-28 11:09:00,64.4,47.4,30.24,North,0,0.0,0.0,54,0.00,CLR,FEW,0.00,WeatherDisplay:10.37,2013-10-28 15:09:00,
2013-10-28 11:14:00,64.8,46.7,30.24,North,0,0.0,0.0,52,0.00,CLR,FEW,0.00,WeatherDisplay:10.37,2013-10-28 15:14:00,
2013-10-28 11:19:00,65.1,47.1,30.24,North,0,0.0,0.0,52,0.00,CLR,FEW,0.00,WeatherDisplay:10.37,2013-10-28 15:19:00,
2013-10-28 11:25:00,65.8,45.0,30.24,North,0,0.0,0.0,47,0.00,CLR,FEW,0.00,WeatherDisplay:10.37,2013-10-28 15:25:00,
2013-10-28 11:30:00,66.2,43.6,30.24,North,0,0.0,0.0,44,0.00,CLR,FEW,0.00,WeatherDisplay:10.37,2013-10-28 15:30:00,
2013-10-28 11:35:00,67.1,44.4,30.24,North,0,0.0,0.0,44,0.00,CLR,FEW,0.00,WeatherDisplay:10.37,2013-10-28 15:35:00,
2013-10-28 11:40:00,67.8,44.5,30.24,North,0,0.0,0.0,43,0.00,CLR,FEW,0.00,WeatherDisplay:10.37,2013-10-28 15:40:00,
2013-10-28 11:45:00,68.7,42.1,30.24,North,0,0.0,0.0,38,0.00,CLR,FEW,0.00,WeatherDisplay:10.37,2013-10-28 15:45:00,
2013-10-28 11:50:00,69.8,41.6,30.24,North,0,0.0,0.0,36,0.00,CLR,FEW,0.00,WeatherDisplay:10.37,2013-10-28 15:50:00,
2013-10-28 11:55:00,70.3,39.1,30.24,North,0,0.0,0.0,32,0.00,CLR,FEW,0.00,WeatherDisplay:10.37,2013-10-28 15:55:00,
2013-10-28 12:00:00,70.9,37.9,30.24,North,0,0.0,0.0,30,0.00,CLR,FEW,0.00,WeatherDisplay:10.37,2013-10-28 16:00:00,
2013-10-28 12:06:00,71.2,37.3,30.24,North,0,0.0,0.0,29,0.00,CLR,FEW,0.00,WeatherDisplay:10.37,2013-10-28 16:06:00,
2013-10-28 12:11:00,71.4,35.7,30.24,North,0,0.0,0.0,27,0.00,CLR,FEW,0.00,WeatherDisplay:10.37,2013-10-28 16:11:00,
2013-10-28 12:16:00,71.6,35.8,30.21,North,0,0.0,0.0,27,0.00,CLR,FEW,0.00,WeatherDisplay:10.37,2013-10-28 16:16:00,
2013-10-28 12:21:00,72.1,34.4,30.21,North,0,0.0,0.0,25,0.00,CLR,FEW,0.00,WeatherDisplay:10.37,2013-10-28 16:21:00,
2013-10-28 12:26:00,72.5,35.6,30.21,North,0,0.0,0.0,26,0.00,CLR,FEW,0.00,WeatherDisplay:10.37,2013-10-28 16:26:00,
2013-10-28 12:31:00,73.0,33.0,30.21,North,0,0.0,0.0,23,0.00,CLR,FEW,0.00,WeatherDisplay:10.37,2013-10-28 16:31:00,
2013-10-28 12:36:00,73.0,34.1,30.21,North,0,0.0,0.0,24,0.00,CLR,FEW,0.00,WeatherDisplay:10.37,2013-10-28 16:36:00,
2013-10-28 12:41:00,72.9,32.9,30.21,North,0,0.0,0.0,23,0.00,CLR,FEW,0.00,WeatherDisplay:10.37,2013-10-28 16:41:00,
2013-10-28 12:46:00,72.7,32.7,30.21,North,0,0.0,0.0,23,0.00,CLR,FEW,0.00,WeatherDisplay:10.37,2013-10-28 16:46:00,
2013-10-28 12:51:00,72.3,33.5,30.21,North,0,0.0,0.0,24,0.00,CLR,FEW,0.00,WeatherDisplay:10.37,2013-10-28 16:51:00,
2013-10-28 12:56:00,72.3,33.5,30.21,North,0,0.0,0.0,24,0.00,CLR,FEW,0.00,WeatherDisplay:10.37,2013-10-28 16:56:00,
2013-10-28 13:01:00,71.8,33.0,30.21,North,0,0.0,0.0,24,0.00,CLR,FEW,0.00,WeatherDisplay:10.37,2013-10-28 17:01:00,
2013-10-28 13:06:00,71.6,32.9,30.21,North,0,0.0,0.0,24,0.00,CLR,FEW,0.00,WeatherDisplay:10.37,2013-10-28 17:06:00,
2013-10-28 13:11:00,72.3,33.5,30.21,North,0,0.0,0.0,24,0.00,CLR,FEW,0.00,WeatherDisplay:10.37,2013-10-28 17:11:00,
2013-10-28 13:16:00,72.3,32.4,30.21,North,0,0.0,0.0,23,0.00,CLR,FEW,0.00,WeatherDisplay:10.37,2013-10-28 17:16:00,
2013-10-28 13:21:00,72.1,33.3,30.21,North,0,0.0,0.0,24,0.00,CLR,FEW,0.00,WeatherDisplay:10.37,2013-10-28 17:21:00,
2013-10-28 13:26:00,71.4,33.7,30.21,North,0,0.0,0.0,25,0.00,CLR,FEW,0.00,WeatherDisplay:10.37,2013-10-28 17:26:00,
2013-10-28 13:31:00,70.7,36.0,30.21,North,0,0.0,0.0,28,0.00,CLR,FEW,0.00,WeatherDisplay:10.37,2013-10-28 17:31:00,
2013-10-28 13:36:00,70.2,35.5,30.21,North,0,0.0,0.0,28,0.00,CLR,FEW,0.00,WeatherDisplay:10.37,2013-10-28 17:36:00,
2013-10-28 13:41:00,70.2,34.6,30.21,North,0,0.0,0.0,27,0.00,CLR,FEW,0.00,WeatherDisplay:10.37,2013-10-28 17:41:00,
2013-10-28 13:46:00,70.5,34.9,30.21,North,0,0.0,0.0,27,0.00,CLR,FEW,0.00,WeatherDisplay:10.37,2013-10-28 17:46:00,
2013-10-28 13:51:00,71.1,34.4,30.21,North,0,0.0,0.0,26,0.00,CLR,FEW,0.00,WeatherDisplay:10.37,2013-10-28 17:51:00,
2013-10-28 13:56:00,71.8,33.0,30.21,North,0,0.0,0.0,24,0.00,CLR,FEW,0.00,WeatherDisplay:10.37,2013-10-28 17:56:00,
2013-10-28 14:01:00,72.1,35.3,30.21,North,0,0.0,0.0,26,0.00,CLR,FEW,0.00,WeatherDisplay:10.37,2013-10-28 18:01:00,
2013-10-28 14:06:00,72.0,35.2,30.21,North,0,0.0,0.0,26,0.00,CLR,FEW,0.00,WeatherDisplay:10.37,2013-10-28 18:06:00,
2013-10-28 14:11:00,71.6,36.8,30.21,North,0,0.0,0.0,28,0.00,CLR,FEW,0.00,WeatherDisplay:10.37,2013-10-28 18:11:00,
2013-10-28 14:16:00,70.9,38.7,30.18,North,0,0.0,0.0,31,0.00,CLR,FEW,0.00,WeatherDisplay:10.37,2013-10-28 18:16:00,
2013-10-28 14:21:00,70.7,38.6,30.18,North,0,0.0,0.0,31,0.00,CLR,FEW,0.00,WeatherDisplay:10.37,2013-10-28 18:21:00,
2013-10-28 14:26:00,70.9,37.9,30.18,North,0,0.0,0.0,30,0.00,CLR,FEW,0.00,WeatherDisplay:10.37,2013-10-28 18:26:00,
2013-10-28 14:31:00,71.1,37.2,30.18,North,0,0.0,0.0,29,0.00,CLR,FEW,0.00,WeatherDisplay:10.37,2013-10-28 18:31:00,
2013-10-28 14:36:00,71.1,36.3,30.18,North,0,0.0,0.0,28,0.00,CLR,FEW,0.00,WeatherDisplay:10.37,2013-10-28 18:36:00,
2013-10-28 14:41:00,70.7,39.4,30.18,North,0,0.0,0.0,32,0.00,CLR,FEW,0.00,WeatherDisplay:10.37,2013-10-28 18:41:00,
2013-10-28 14:46:00,70.5,37.6,30.18,North,0,0.0,0.0,30,0.00,CLR,FEW,0.00,WeatherDisplay:10.37,2013-10-28 18:46:00,
2013-10-28 14:51:00,70.3,37.4,30.18,North,0,0.0,0.0,30,0.00,CLR,FEW,0.00,WeatherDisplay:10.37,2013-10-28 18:51:00,
2013-10-28 14:56:00,70.5,38.4,30.18,North,0,0.0,0.0,31,0.00,CLR,FEW,0.00,WeatherDisplay:10.37,2013-10-28 18:56:00,
2013-10-28 15:01:00,70.5,38.4,30.18,North,0,0.0,0.0,31,0.00,CLR,FEW,0.00,WeatherDisplay:10.37,2013-10-28 19:01:00,
2013-10-28 15:06:00,70.3,37.4,30.18,North,0,0.0,0.0,30,0.00,CLR,FEW,0.00,WeatherDisplay:10.37,2013-10-28 19:06:00,
2013-10-28 15:11:00,70.2,38.9,30.18,North,0,0.0,0.0,32,0.00,CLR,FEW,0.00,WeatherDisplay:10.37,2013-10-28 19:11:00,
2013-10-28 15:16:00,70.2,38.9,30.18,North,0,0.0,0.0,32,0.00,CLR,FEW,0.00,WeatherDisplay:10.37,2013-10-28 19:16:00,
2013-10-28 15:21:00,70.0,39.5,30.18,North,0,0.0,0.0,33,0.00,CLR,FEW,0.00,WeatherDisplay:10.37,2013-10-28 19:21:00,
2013-10-28 15:26:00,70.0,39.5,30.18,North,0,0.0,0.0,33,0.00,CLR,FEW,0.00,WeatherDisplay:10.37,2013-10-28 19:26:00,
2013-10-28 15:31:00,70.0,39.5,30.18,North,0,0.0,0.0,33,0.00,CLR,FEW,0.00,WeatherDisplay:10.37,2013-10-28 19:31:00,
2013-10-28 15:36:00,70.0,39.5,30.18,North,0,0.0,0.0,33,0.00,CLR,FEW,0.00,WeatherDisplay:10.37,2013-10-28 19:36:00,
2013-10-28 15:41:00,70.0,40.3,30.18,North,0,0.0,0.0,34,0.00,CLR,FEW,0.00,WeatherDisplay:10.37,2013-10-28 19:41:00,
2013-10-28 15:46:00,70.0,40.3,30.18,North,0,0.0,0.0,34,0.00,CLR,FEW,0.00,WeatherDisplay:10.37,2013-10-28 19:46:00,
2013-10-28 15:51:00,70.0,39.5,30.18,North,0,0.0,0.0,33,0.00,CLR,FEW,0.00,WeatherDisplay:10.37,2013-10-28 19:51:00,
2013-10-28 15:56:00,69.8,39.4,30.18,North,0,0.0,0.0,33,0.00,CLR,FEW,0.00,WeatherDisplay:10.37,2013-10-28 19:56:00,
2013-10-28 16:01:00,69.8,39.4,30.18,North,0,0.0,0.0,33,0.00,CLR,FEW,0.00,WeatherDisplay:10.37,2013-10-28 20:01:00,
2013-10-28 16:06:00,69.6,39.2,30.18,North,0,0.0,0.0,33,0.00,CLR,FEW,0.00,WeatherDisplay:10.37,2013-10-28 20:06:00,
2013-10-28 16:12:00,69.6,39.2,30.18,North,0,0.0,0.0,33,0.00,CLR,FEW,0.00,WeatherDisplay:10.37,2013-10-28 20:12:00,
2013-10-28 16:17:00,69.8,40.2,30.18,North,0,0.0,0.0,34,0.00,CLR,FEW,0.00,WeatherDisplay:10.37,2013-10-28 20:17:00,
2013-10-28 16:22:00,69.8,40.2,30.18,North,0,0.0,0.0,34,0.00,CLR,FEW,0.00,WeatherDisplay:10.37,2013-10-28 20:22:00,
2013-10-28 16:27:00,69.8,40.2,30.18,North,0,0.0,0.0,34,0.00,CLR,FEW,0.00,WeatherDisplay:10.37,2013-10-28 20:27:00,
2013-10-28 16:32:00,69.8,40.9,30.18,North,0,0.0,0.0,35,0.00,CLR,FEW,0.00,WeatherDisplay:10.37,2013-10-28 20:32:00,
2013-10-28 16:37:00,69.4,41.3,30.18,North,0,0.0,0.0,36,0.00,CLR,FEW,0.00,WeatherDisplay:10.37,2013-10-28 20:37:00,
2013-10-28 16:42:00,69.3,41.2,30.18,North,0,0.0,0.0,36,0.00,CLR,FEW,0.00,WeatherDisplay:10.37,2013-10-28 20:42:00,
2013-10-28 16:47:00,69.1,41.0,30.18,North,0,0.0,0.0,36,0.00,CLR,FEW,0.00,WeatherDisplay:10.37,2013-10-28 20:47:00,
2013-10-28 16:52:00,69.1,41.7,30.18,North,0,0.0,0.0,37,0.00,CLR,FEW,0.00,WeatherDisplay:10.37,2013-10-28 20:52:00,
2013-10-28 16:57:00,68.9,40.8,30.18,North,0,0.0,0.0,36,0.00,CLR,FEW,0.00,WeatherDisplay:10.37,2013-10-28 20:57:00,
2013-10-28 17:04:00,68.7,41.4,30.18,North,0,0.0,0.0,37,0.00,CLR,FEW,0.00,WeatherDisplay:10.37,2013-10-28 21:04:00,
2013-10-28 17:09:00,68.5,41.2,30.18,North,0,0.0,0.0,37,0.00,CLR,FEW,0.00,WeatherDisplay:10.37,2013-10-28 21:09:00,
2013-10-28 17:14:00,68.5,41.9,30.18,North,0,0.0,0.0,38,0.00,CLR,FEW,0.00,WeatherDisplay:10.37,2013-10-28 21:14:00,
2013-10-28 17:20:00,68.7,42.8,30.18,North,0,0.0,0.0,39,0.00,CLR,FEW,0.00,WeatherDisplay:10.37,2013-10-28 21:20:00,
2013-10-28 17:25:00,68.7,42.8,30.18,North,0,0.0,0.0,39,0.00,CLR,FEW,0.00,WeatherDisplay:10.37,2013-10-28 21:25:00,
2013-10-28 17:31:00,68.5,42.6,30.18,North,0,0.0,0.0,39,0.00,CLR,FEW,0.00,WeatherDisplay:10.37,2013-10-28 21:31:00,
2013-10-28 17:36:00,68.4,42.4,30.18,North,0,0.0,0.0,39,0.00,CLR,FEW,0.00,WeatherDisplay:10.37,2013-10-28 21:36:00,
2013-10-28 17:41:00,68.2,42.3,30.18,North,0,0.0,0.0,39,0.00,CLR,FEW,0.00,WeatherDisplay:10.37,2013-10-28 21:41:00,
2013-10-28 17:46:00,68.2,42.9,30.18,North,0,0.0,0.0,40,0.00,CLR,FEW,0.00,WeatherDisplay:10.37,2013-10-28 21:46:00,
2013-10-28 17:51:00,68.0,42.8,30.18,North,0,0.0,0.0,40,0.00,CLR,FEW,0.00,WeatherDisplay:10.37,2013-10-28 21:51:00,
2013-10-28 17:56:00,67.8,43.2,30.18,North,0,0.0,0.0,41,0.00,CLR,FEW,0.00,WeatherDisplay:10.37,2013-10-28 21:56:00,
2013-10-28 18:01:00,67.8,43.9,30.18,North,0,0.0,0.0,42,0.00,CLR,FEW,0.00,WeatherDisplay:10.37,2013-10-28 22:01:00,
2013-10-28 18:07:00,67.6,44.3,30.18,North,0,0.0,0.0,43,0.00,CLR,FEW,0.00,WeatherDisplay:10.37,2013-10-28 22:07:00,
2013-10-28 18:12:00,67.6,44.9,30.18,North,0,0.0,0.0,44,0.00,CLR,FEW,0.00,WeatherDisplay:10.37,2013-10-28 22:12:00,
2013-10-28 18:18:00,67.5,45.4,30.18,North,0,0.0,0.0,45,0.00,CLR,FEW,0.00,WeatherDisplay:10.37,2013-10-28 22:18:00,
2013-10-28 18:23:00,67.5,45.4,30.18,North,0,0.0,0.0,45,0.00,CLR,FEW,0.00,WeatherDisplay:10.37,2013-10-28 22:23:00,
2013-10-28 18:28:00,67.3,45.2,30.18,North,0,0.0,0.0,45,0.00,CLR,FEW,0.00,WeatherDisplay:10.37,2013-10-28 22:28:00,
2013-10-28 18:33:00,67.1,45.0,30.18,North,0,0.0,0.0,45,0.00,CLR,FEW,0.00,WeatherDisplay:10.37,2013-10-28 22:33:00,
2013-10-28 18:38:00,66.9,44.9,30.18,North,0,0.0,0.0,45,0.00,CLR,FEW,0.00,WeatherDisplay:10.37,2013-10-28 22:38:00,
2013-10-28 18:43:00,66.7,45.3,30.18,North,0,0.0,0.0,46,0.00,CLR,FEW,0.00,WeatherDisplay:10.37,2013-10-28 22:43:00,
2013-10-28 18:48:00,66.7,45.3,30.18,North,0,0.0,0.0,46,0.00,CLR,FEW,0.00,WeatherDisplay:10.37,2013-10-28 22:48:00,
2013-10-28 18:53:00,66.6,45.7,30.18,North,0,0.0,0.0,47,0.00,CLR,FEW,0.00,WeatherDisplay:10.37,2013-10-28 22:53:00,
2013-10-28 18:58:00,66.6,45.7,30.21,North,0,0.0,0.0,47,0.00,CLR,FEW,0.00,WeatherDisplay:10.37,2013-10-28 22:58:00,
2013-10-28 19:03:00,66.4,45.5,30.21,North,0,0.0,0.0,47,0.00,CLR,FEW,0.00,WeatherDisplay:10.37,2013-10-28 23:03:00,
2013-10-28 19:08:00,66.0,46.3,30.21,North,0,0.0,0.0,49,0.00,CLR,FEW,0.00,WeatherDisplay:10.37,2013-10-28 23:08:00,
2013-10-28 19:13:00,65.8,47.7,30.21,North,0,0.0,0.0,52,0.00,CLR,FEW,0.00,WeatherDisplay:10.37,2013-10-28 23:13:00,
2013-10-28 19:18:00,65.8,49.7,30.21,North,0,0.0,0.0,56,0.00,CLR,FEW,0.00,WeatherDisplay:10.37,2013-10-28 23:18:00,
2013-10-28 19:23:00,65.7,50.0,30.21,North,0,0.0,0.0,57,0.00,CLR,FEW,0.00,WeatherDisplay:10.37,2013-10-28 23:23:00,
2013-10-28 19:28:00,65.5,49.8,30.21,North,0,0.0,0.0,57,0.00,CLR,FEW,0.00,WeatherDisplay:10.37,2013-10-28 23:28:00,
2013-10-28 19:33:00,65.3,49.7,30.21,North,0,0.0,0.0,57,0.00,CLR,FEW,0.00,WeatherDisplay:10.37,2013-10-28 23:33:00,
2013-10-28 19:38:00,65.1,49.5,30.21,North,0,0.0,0.0,57,0.00,CLR,FEW,0.00,WeatherDisplay:10.37,2013-10-28 23:38:00,
2013-10-28 19:44:00,64.9,49.8,30.21,North,0,0.0,0.0,58,0.00,CLR,FEW,0.00,WeatherDisplay:10.37,2013-10-28 23:44:00,
2013-10-28 19:49:00,64.8,49.6,30.21,North,0,0.0,0.0,58,0.00,CLR,FEW,0.00,WeatherDisplay:10.37,2013-10-28 23:49:00,
2013-10-28 19:54:00,64.4,49.3,30.21,North,0,0.0,0.0,58,0.00,CLR,FEW,0.00,WeatherDisplay:10.37,2013-10-28 23:54:00,
2013-10-28 20:00:00,64.2,49.6,30.21,North,0,0.0,0.0,59,0.00,CLR,FEW,0.00,WeatherDisplay:10.37,2013-10-29 00:00:00,
2013-10-28 20:05:00,64.0,50.8,30.21,North,0,0.0,0.0,62,0.00,CLR,FEW,0.00,WeatherDisplay:10.37,2013-10-29 00:05:00,
2013-10-28 20:10:00,64.0,52.0,30.21,North,0,0.0,0.0,65,0.00,CLR,FEW,0.00,WeatherDisplay:10.37,2013-10-29 00:10:00,
2013-10-28 20:15:00,64.0,52.9,30.21,North,0,0.0,0.0,67,0.00,CLR,FEW,0.00,WeatherDisplay:10.37,2013-10-29 00:15:00,
2013-10-28 20:20:00,64.0,53.3,30.21,North,0,0.0,0.0,68,0.00,CLR,FEW,0.00,WeatherDisplay:10.37,2013-10-29 00:20:00,
2013-10-28 20:25:00,64.0,53.3,30.21,North,0,0.0,0.0,68,0.00,CLR,FEW,0.00,WeatherDisplay:10.37,2013-10-29 00:25:00,
2013-10-28 20:31:00,64.0,53.3,30.21,North,0,0.0,0.0,68,0.00,CLR,FEW,0.00,WeatherDisplay:10.37,2013-10-29 00:31:00,
2013-10-28 20:36:00,64.0,53.3,30.21,North,0,0.0,0.0,68,0.00,CLR,FEW,0.00,WeatherDisplay:10.37,2013-10-29 00:36:00,
2013-10-28 20:41:00,64.0,53.3,30.21,North,0,0.0,0.0,68,0.00,CLR,FEW,0.00,WeatherDisplay:10.37,2013-10-29 00:41:00,
2013-10-28 20:46:00,64.0,53.7,30.21,North,0,0.0,0.0,69,0.00,CLR,FEW,0.00,WeatherDisplay:10.37,2013-10-29 00:46:00,
2013-10-28 20:51:00,64.0,53.7,30.21,North,0,0.0,0.0,69,0.00,CLR,FEW,0.00,WeatherDisplay:10.37,2013-10-29 00:51:00,
2013-10-28 20:56:00,64.2,53.8,30.21,North,0,0.0,0.0,69,0.00,CLR,FEW,0.00,WeatherDisplay:10.37,2013-10-29 00:56:00,
2013-10-28 21:02:00,64.2,53.8,30.21,North,0,0.0,0.0,69,0.00,CLR,FEW,0.00,WeatherDisplay:10.37,2013-10-29 01:02:00,
2013-10-28 21:07:00,64.2,53.8,30.21,North,0,0.0,0.0,69,0.00,CLR,FEW,0.00,WeatherDisplay:10.37,2013-10-29 01:07:00,
2013-10-28 21:12:00,64.0,53.7,30.24,North,0,0.0,0.0,69,0.00,CLR,FEW,0.00,WeatherDisplay:10.37,2013-10-29 01:12:00,
2013-10-28 21:17:00,64.0,53.7,30.24,North,0,0.0,0.0,69,0.00,CLR,FEW,0.00,WeatherDisplay:10.37,2013-10-29 01:17:00,
2013-10-28 21:23:00,63.9,53.5,30.24,North,0,0.0,0.0,69,0.00,CLR,FEW,0.00,WeatherDisplay:10.37,2013-10-29 01:23:00,
2013-10-28 21:28:00,63.9,53.5,30.24,North,0,0.0,0.0,69,0.00,CLR,FEW,0.00,WeatherDisplay:10.37,2013-10-29 01:28:00,
2013-10-28 21:33:00,63.9,53.5,30.24,North,0,0.0,0.0,69,0.00,CLR,FEW,0.00,WeatherDisplay:10.37,2013-10-29 01:33:00,
2013-10-28 21:38:00,63.9,53.5,30.24,North,0,0.0,0.0,69,0.00,CLR,FEW,0.00,WeatherDisplay:10.37,2013-10-29 01:38:00,
2013-10-28 21:43:00,63.7,53.3,30.24,North,0,0.0,0.0,69,0.00,CLR,FEW,0.00,WeatherDisplay:10.37,2013-10-29 01:43:00,
2013-10-28 21:49:00,63.5,53.1,30.24,North,0,0.0,0.0,69,0.00,CLR,FEW,0.00,WeatherDisplay:10.37,2013-10-29 01:49:00,
2013-10-28 21:54:00,63.5,53.5,30.24,North,0,0.0,0.0,70,0.00,CLR,FEW,0.00,WeatherDisplay:10.37,2013-10-29 01:54:00,
2013-10-28 21:59:00,63.1,53.2,30.24,North,0,0.0,0.0,70,0.00,CLR,FEW,0.00,WeatherDisplay:10.37,2013-10-29 01:59:00,
2013-10-28 22:04:00,63.0,53.0,30.24,North,0,0.0,0.0,70,0.00,CLR,FEW,0.00,WeatherDisplay:10.37,2013-10-29 02:04:00,
2013-10-28 22:09:00,62.6,52.7,30.24,North,0,0.0,0.0,70,0.00,CLR,FEW,0.00,WeatherDisplay:10.37,2013-10-29 02:09:00,
2013-10-28 22:14:00,62.4,52.9,30.24,North,0,0.0,0.0,71,0.00,CLR,FEW,0.00,WeatherDisplay:10.37,2013-10-29 02:14:00,
2013-10-28 22:19:00,62.2,53.1,30.24,North,0,0.0,0.0,72,0.00,CLR,FEW,0.00,WeatherDisplay:10.37,2013-10-29 02:19:00,
2013-10-28 22:25:00,61.9,52.8,30.24,North,0,0.0,0.0,72,0.00,CLR,FEW,0.00,WeatherDisplay:10.37,2013-10-29 02:25:00,
2013-10-28 22:31:00,61.7,53.0,30.24,North,0,0.0,0.0,73,0.00,CLR,FEW,0.00,WeatherDisplay:10.37,2013-10-29 02:31:00,
2013-10-28 22:37:00,61.3,52.6,30.24,North,0,0.0,0.0,73,0.00,CLR,FEW,0.00,WeatherDisplay:10.37,2013-10-29 02:37:00,
2013-10-28 22:42:00,61.3,53.0,30.24,North,0,0.0,0.0,74,0.00,CLR,FEW,0.00,WeatherDisplay:10.37,2013-10-29 02:42:00,
2013-10-28 22:47:00,61.0,53.4,30.24,North,0,0.0,0.0,76,0.00,CLR,FEW,0.00,WeatherDisplay:10.37,2013-10-29 02:47:00,
2013-10-28 22:52:00,61.0,53.4,30.24,North,0,0.0,0.0,76,0.00,CLR,FEW,0.00,WeatherDisplay:10.37,2013-10-29 02:52:00,
2013-10-28 22:57:00,60.8,53.5,30.24,North,0,0.0,0.0,77,0.00,CLR,FEW,0.00,WeatherDisplay:10.37,2013-10-29 02:57:00,
2013-10-28 23:03:00,60.6,53.4,30.24,North,0,0.0,0.0,77,0.00,CLR,FEW,0.00,WeatherDisplay:10.37,2013-10-29 03:03:00,
2013-10-28 23:08:00,60.6,53.7,30.24,North,0,0.0,0.0,78,0.00,CLR,FEW,0.00,WeatherDisplay:10.37,2013-10-29 03:08:00,
2013-10-28 23:13:00,60.4,53.5,30.24,North,0,0.0,0.0,78,0.00,CLR,FEW,0.00,WeatherDisplay:10.37,2013-10-29 03:13:00,
2013-10-28 23:18:00,60.3,54.1,30.24,North,0,0.0,0.0,80,0.00,CLR,FEW,0.00,WeatherDisplay:10.37,2013-10-29 03:18:00,
2013-10-28 23:23:00,60.3,54.1,30.24,North,0,0.0,0.0,80,0.00,CLR,FEW,0.00,WeatherDisplay:10.37,2013-10-29 03:23:00,
2013-10-28 23:28:00,60.1,54.2,30.24,North,0,0.0,0.0,81,0.00,CLR,FEW,0.00,WeatherDisplay:10.37,2013-10-29 03:28:00,
2013-10-28 23:33:00,60.1,54.2,30.24,North,0,0.0,0.0,81,0.00,CLR,FEW,0.00,WeatherDisplay:10.37,2013-10-29 03:33:00,
2013-10-28 23:38:00,60.1,54.6,30.24,North,0,0.0,0.0,82,0.00,CLR,FEW,0.00,WeatherDisplay:10.37,2013-10-29 03:38:00,
2013-10-28 23:43:00,60.1,54.6,30.24,North,0,0.0,0.0,82,0.00,CLR,FEW,0.00,WeatherDisplay:10.37,2013-10-29 03:43:00,
2013-10-28 23:48:00,60.1,54.6,30.24,North,0,0.0,0.0,82,0.00,CLR,FEW,0.00,WeatherDisplay:10.37,2013-10-29 03:48:00,
2013-10-28 23:53:00,59.9,54.4,30.24,North,0,0.0,0.0,82,0.00,CLR,FEW,0.00,WeatherDisplay:10.37,2013-10-29 03:53:00,
2013-10-28 23:58:00,59.9,54.7,30.24,North,0,0.0,0.0,83,0.00,CLR,FEW,0.00,WeatherDisplay:10.37,2013-10-29 03:58:00,